createdAt,value
2017-04-18T00:00:27.405Z,4.24
2017-04-18T00:01:28.827Z,4.18
2017-04-18T00:02:30.252Z,4.32
2017-04-18T00:03:31.688Z,4.33
2017-04-18T00:04:33.111Z,4.26
2017-04-18T00:05:34.537Z,4.44
2017-04-18T00:06:35.976Z,4.42
2017-04-18T00:07:37.375Z,4.40
2017-04-18T00:08:38.793Z,4.29
2017-04-18T00:09:40.223Z,4.34
2017-04-18T00:10:41.631Z,4.26
2017-04-18T00:11:43.055Z,4.42
2017-04-18T00:12:44.477Z,4.47
2017-04-18T00:13:45.853Z,4.40
2017-04-18T00:14:47.276Z,4.36
2017-04-18T00:15:48.691Z,4.29
2017-04-18T00:16:50.120Z,4.46
2017-04-18T00:17:51.548Z,4.44
2017-04-18T00:18:52.958Z,4.32
2017-04-18T00:19:54.380Z,4.46
2017-04-18T00:20:55.794Z,4.69
2017-04-18T00:21:57.215Z,4.75
2017-04-18T00:22:58.634Z,4.92
2017-04-18T00:24:00.067Z,4.67
2017-04-18T00:25:01.484Z,4.59
2017-04-18T00:26:02.912Z,4.64
2017-04-18T00:27:04.333Z,4.77
2017-04-18T00:28:05.759Z,4.72
2017-04-18T00:29:07.182Z,4.75
2017-04-18T00:30:08.599Z,4.88
2017-04-18T00:31:10.017Z,4.80
2017-04-18T00:32:11.434Z,4.70
2017-04-18T00:33:12.864Z,4.72
2017-04-18T00:34:14.290Z,4.86
2017-04-18T00:35:15.707Z,4.77
2017-04-18T00:36:17.128Z,4.75
2017-04-18T00:37:18.558Z,4.73
2017-04-18T00:38:20.911Z,4.80
2017-04-18T00:39:22.326Z,5.02
2017-04-18T00:40:23.750Z,5.02
2017-04-18T00:41:25.194Z,4.95
2017-04-18T00:42:26.613Z,5.04
2017-04-18T00:43:28.032Z,5.02
2017-04-18T00:44:29.502Z,4.92
2017-04-18T00:45:30.926Z,4.95
2017-04-18T00:46:32.358Z,5.05
2017-04-18T00:47:33.779Z,5.07
2017-04-18T00:48:35.208Z,4.89
2017-04-18T00:49:36.634Z,4.64
2017-04-18T00:50:38.044Z,4.83
2017-04-18T00:51:39.469Z,4.83
2017-04-18T00:52:40.889Z,4.76
2017-04-18T00:53:42.310Z,5.01
2017-04-18T00:54:43.724Z,4.91
2017-04-18T00:55:45.140Z,4.73
2017-04-18T00:56:46.516Z,4.67
2017-04-18T00:57:47.940Z,4.55
2017-04-18T00:58:49.359Z,4.73
2017-04-18T00:59:50.776Z,4.67
2017-04-18T01:00:52.195Z,4.72
2017-04-18T01:01:53.616Z,4.77
2017-04-18T01:02:55.038Z,4.80
2017-04-18T01:03:56.458Z,4.76
2017-04-18T01:04:57.876Z,4.58
2017-04-18T01:05:59.300Z,4.59
2017-04-18T01:07:00.719Z,4.46
2017-04-18T01:08:02.140Z,4.47
2017-04-18T01:09:03.559Z,4.61
2017-04-18T01:10:04.976Z,4.59
2017-04-18T01:11:06.398Z,4.67
2017-04-18T01:12:07.821Z,4.65
2017-04-18T01:13:09.239Z,4.51
2017-04-18T01:14:10.661Z,4.44
2017-04-18T01:15:12.083Z,4.24
2017-04-18T01:16:13.509Z,4.28
2017-04-18T01:17:14.927Z,4.26
2017-04-18T01:18:16.310Z,4.15
2017-04-18T01:19:17.733Z,4.33
2017-04-18T01:20:19.151Z,4.18
2017-04-18T01:21:20.571Z,4.25
2017-04-18T01:22:21.986Z,4.16
2017-04-18T01:23:23.405Z,4.16
2017-04-18T01:24:24.828Z,4.21
2017-04-18T01:25:26.250Z,4.19
2017-04-18T01:26:27.673Z,4.14
2017-04-18T01:27:29.092Z,4.19
2017-04-18T01:28:30.513Z,4.03
2017-04-18T01:29:31.942Z,4.15
2017-04-18T01:30:33.367Z,4.01
2017-04-18T01:31:34.787Z,4.06
2017-04-18T01:32:36.208Z,4.06
2017-04-18T01:33:37.629Z,4.04
2017-04-18T01:34:39.047Z,3.92
2017-04-18T01:35:40.466Z,4.08
2017-04-18T01:36:41.887Z,4.10
2017-04-18T01:37:43.314Z,4.26
2017-04-18T01:38:44.691Z,3.98
2017-04-18T01:39:46.112Z,3.98
2017-04-18T01:40:47.535Z,3.98
2017-04-18T01:41:48.954Z,3.90
2017-04-18T01:42:50.379Z,3.94
2017-04-18T01:43:51.801Z,3.92
2017-04-18T01:44:53.217Z,4.12
2017-04-18T01:45:54.654Z,4.16
2017-04-18T01:46:56.074Z,4.16
2017-04-18T01:47:57.505Z,4.18
2017-04-18T01:48:58.929Z,4.36
2017-04-18T01:50:00.354Z,4.19
2017-04-18T01:51:01.781Z,4.18
2017-04-18T01:52:03.203Z,4.26
2017-04-18T01:53:04.630Z,4.15
2017-04-18T01:54:06.049Z,4.25
2017-04-18T01:55:07.461Z,4.12
2017-04-18T01:56:08.923Z,4.15
2017-04-18T01:57:10.335Z,4.06
2017-04-18T01:58:11.754Z,3.97
2017-04-18T01:59:13.175Z,3.88
2017-04-18T02:00:14.593Z,3.94
2017-04-18T02:01:16.014Z,3.90
2017-04-18T02:02:17.437Z,4.07
2017-04-18T02:03:18.860Z,4.19
2017-04-18T02:04:20.288Z,4.14
2017-04-18T02:05:21.703Z,4.12
2017-04-18T02:06:23.135Z,4.07
2017-04-18T02:07:24.557Z,3.90
2017-04-18T02:08:25.980Z,4.03
2017-04-18T02:09:27.408Z,3.78
2017-04-18T02:10:28.822Z,3.86
2017-04-18T02:11:30.237Z,3.92
2017-04-18T02:12:31.658Z,3.80
2017-04-18T02:13:33.075Z,4.06
2017-04-18T02:14:34.494Z,3.85
2017-04-18T02:15:35.912Z,3.97
2017-04-18T02:16:37.337Z,4.07
2017-04-18T02:17:38.760Z,3.96
2017-04-18T02:18:40.177Z,4.07
2017-04-18T02:19:41.607Z,3.92
2017-04-18T02:20:43.028Z,3.79
2017-04-18T02:21:44.449Z,4.08
2017-04-18T02:22:45.868Z,3.98
2017-04-18T02:23:47.286Z,3.62
2017-04-18T02:24:48.705Z,3.82
2017-04-18T02:25:50.126Z,4.01
2017-04-18T02:26:51.549Z,3.94
2017-04-18T02:27:52.970Z,3.92
2017-04-18T02:28:54.403Z,4.06
2017-04-18T02:29:55.823Z,3.98
2017-04-18T02:30:57.244Z,4.16
2017-04-18T02:31:58.668Z,4.06
2017-04-18T02:33:00.090Z,4.03
2017-04-18T02:34:01.516Z,3.72
2017-04-18T02:35:02.938Z,3.80
2017-04-18T02:36:04.355Z,4.12
2017-04-18T02:37:05.780Z,4.04
2017-04-18T02:38:07.197Z,4.29
2017-04-18T02:39:08.627Z,4.14
2017-04-18T02:40:10.046Z,4.08
2017-04-18T02:41:11.468Z,4.16
2017-04-18T02:42:12.919Z,4.06
2017-04-18T02:43:14.319Z,3.88
2017-04-18T02:44:15.745Z,4.07
2017-04-18T02:45:17.167Z,4.07
2017-04-18T02:46:18.585Z,4.14
2017-04-18T02:47:20.003Z,3.79
2017-04-18T02:48:21.423Z,3.85
2017-04-18T02:49:22.847Z,3.78
2017-04-18T02:50:24.272Z,3.92
2017-04-18T02:51:25.691Z,3.83
2017-04-18T02:52:27.156Z,3.78
2017-04-18T02:53:28.576Z,3.83
2017-04-18T02:54:30.002Z,3.78
2017-04-18T02:55:31.505Z,3.76
2017-04-18T02:56:32.929Z,3.65
2017-04-18T02:57:34.351Z,3.70
2017-04-18T02:58:35.822Z,3.78
2017-04-18T02:59:37.266Z,3.89
2017-04-18T03:00:38.685Z,3.82
2017-04-18T03:01:40.113Z,3.68
2017-04-18T03:02:41.546Z,3.72
2017-04-18T03:03:42.976Z,3.72
2017-04-18T03:04:44.396Z,3.76
2017-04-18T03:05:45.823Z,3.78
2017-04-18T03:06:47.343Z,3.80
2017-04-18T03:07:48.764Z,3.57
2017-04-18T03:08:50.191Z,3.72
2017-04-18T03:09:52.207Z,3.62
2017-04-18T03:10:53.631Z,3.60
2017-04-18T03:11:55.054Z,3.50
2017-04-18T03:12:56.469Z,3.53
2017-04-18T03:13:57.888Z,3.61
2017-04-18T03:14:59.307Z,3.64
2017-04-18T03:16:00.730Z,3.61
2017-04-18T03:17:02.158Z,3.58
2017-04-18T03:18:03.623Z,3.71
2017-04-18T03:19:05.058Z,3.79
2017-04-18T03:20:06.483Z,3.83
2017-04-18T03:21:07.857Z,3.65
2017-04-18T03:22:09.279Z,3.92
2017-04-18T03:23:10.708Z,3.83
2017-04-18T03:24:12.127Z,3.64
2017-04-18T03:25:13.552Z,3.60
2017-04-18T03:26:14.967Z,3.68
2017-04-18T03:27:16.380Z,3.62
2017-04-18T03:28:17.804Z,3.43
2017-04-18T03:29:19.218Z,3.53
2017-04-18T03:30:20.636Z,3.57
2017-04-18T03:31:22.069Z,3.54
2017-04-18T03:32:23.482Z,3.47
2017-04-18T03:33:24.907Z,3.53
2017-04-18T03:34:26.323Z,3.58
2017-04-18T03:35:27.823Z,3.54
2017-04-18T03:36:29.247Z,3.50
2017-04-18T03:37:30.665Z,3.53
2017-04-18T03:38:32.071Z,3.62
2017-04-18T03:39:33.494Z,3.61
2017-04-18T03:40:34.910Z,3.71
2017-04-18T03:41:36.337Z,3.83
2017-04-18T03:42:37.873Z,3.79
2017-04-18T03:43:39.326Z,3.94
2017-04-18T03:44:40.749Z,3.92
2017-04-18T03:45:42.173Z,3.78
2017-04-18T03:46:43.711Z,3.79
2017-04-18T03:47:45.124Z,3.88
2017-04-18T03:48:46.548Z,3.96
2017-04-18T03:49:47.968Z,3.79
2017-04-18T03:50:49.487Z,3.79
2017-04-18T03:51:50.905Z,3.89
2017-04-18T03:52:52.327Z,3.68
2017-04-18T03:53:53.751Z,3.75
2017-04-18T03:54:55.169Z,3.76
2017-04-18T03:55:56.589Z,3.72
2017-04-18T03:56:58.001Z,3.78
2017-04-18T03:57:59.494Z,3.70
2017-04-18T03:59:00.916Z,3.58
2017-04-18T04:00:02.341Z,3.53
2017-04-18T04:01:03.759Z,3.64
2017-04-18T04:02:05.191Z,3.70
2017-04-18T04:03:06.611Z,3.53
2017-04-18T04:04:08.024Z,3.79
2017-04-18T04:05:09.453Z,3.76
2017-04-18T04:06:10.869Z,3.83
2017-04-18T04:07:12.291Z,3.79
2017-04-18T04:08:13.709Z,3.64
2017-04-18T04:09:15.126Z,3.70
2017-04-18T04:10:16.547Z,3.71
2017-04-18T04:11:17.971Z,3.50
2017-04-18T04:12:19.387Z,3.53
2017-04-18T04:13:20.808Z,3.58
2017-04-18T04:14:22.220Z,3.53
2017-04-18T04:15:23.642Z,3.50
2017-04-18T04:16:25.064Z,3.72
2017-04-18T04:17:26.483Z,3.54
2017-04-18T04:18:27.901Z,3.46
2017-04-18T04:19:29.320Z,3.60
2017-04-18T04:20:30.740Z,3.43
2017-04-18T04:21:32.162Z,3.47
2017-04-18T04:22:33.575Z,3.39
2017-04-18T04:23:34.993Z,3.42
2017-04-18T04:24:36.405Z,3.28
2017-04-18T04:25:37.828Z,3.43
2017-04-18T04:26:39.248Z,3.40
2017-04-18T04:27:40.663Z,3.33
2017-04-18T04:28:42.086Z,3.02
2017-04-18T04:29:43.500Z,3.28
2017-04-18T04:30:44.931Z,3.10
2017-04-18T04:31:46.336Z,3.34
2017-04-18T04:32:47.761Z,3.34
2017-04-18T04:33:49.192Z,3.39
2017-04-18T04:34:50.609Z,3.09
2017-04-18T04:35:52.031Z,3.23
2017-04-18T04:36:53.460Z,3.31
2017-04-18T04:37:54.884Z,3.33
2017-04-18T04:38:56.306Z,3.30
2017-04-18T04:39:57.750Z,3.21
2017-04-18T04:40:59.207Z,3.25
2017-04-18T04:42:00.627Z,3.21
2017-04-18T04:43:02.038Z,3.28
2017-04-18T04:44:03.587Z,3.44
2017-04-18T04:45:05.005Z,3.39
2017-04-18T04:46:06.434Z,3.31
2017-04-18T04:47:07.925Z,3.20
2017-04-18T04:48:09.352Z,3.39
2017-04-18T04:49:10.771Z,3.47
2017-04-18T04:50:12.189Z,3.46
2017-04-18T04:51:13.620Z,3.61
2017-04-18T04:52:15.047Z,3.34
2017-04-18T04:53:16.467Z,3.61
2017-04-18T04:54:17.898Z,3.79
2017-04-18T04:55:19.323Z,3.60
2017-04-18T04:56:20.755Z,3.75
2017-04-18T04:57:22.179Z,3.67
2017-04-18T04:58:23.620Z,3.68
2017-04-18T04:59:25.033Z,3.65
2017-04-18T05:00:26.449Z,3.83
2017-04-18T05:01:27.877Z,3.76
2017-04-18T05:02:29.298Z,3.83
2017-04-18T05:03:30.715Z,3.76
2017-04-18T05:04:32.145Z,3.80
2017-04-18T05:05:34.484Z,3.80
2017-04-18T05:06:35.908Z,3.90
2017-04-18T05:07:37.332Z,3.89
2017-04-18T05:08:38.750Z,3.90
2017-04-18T05:09:40.177Z,3.92
2017-04-18T05:10:41.606Z,4.16
2017-04-18T05:11:43.016Z,3.97
2017-04-18T05:12:44.441Z,4.10
2017-04-18T05:13:45.864Z,4.08
2017-04-18T05:14:47.419Z,4.07
2017-04-18T05:15:48.844Z,4.29
2017-04-18T05:16:50.272Z,4.32
2017-04-18T05:17:51.739Z,4.33
2017-04-18T05:18:53.166Z,4.32
2017-04-18T05:19:54.585Z,4.42
2017-04-18T05:20:56.004Z,4.36
2017-04-18T05:21:57.428Z,4.57
2017-04-18T05:22:58.805Z,4.67
2017-04-18T05:24:00.231Z,4.54
2017-04-18T05:25:01.662Z,4.61
2017-04-18T05:26:03.087Z,4.76
2017-04-18T05:27:04.511Z,4.95
2017-04-18T05:28:05.957Z,4.70
2017-04-18T05:29:07.359Z,4.92
2017-04-18T05:30:08.789Z,4.88
2017-04-18T05:31:10.215Z,4.69
2017-04-18T05:32:11.635Z,4.91
2017-04-18T05:33:13.061Z,4.96
2017-04-18T05:34:14.495Z,5.01
2017-04-18T05:35:16.751Z,5.04
2017-04-18T05:36:18.173Z,5.14
2017-04-18T05:37:19.602Z,4.99
2017-04-18T05:38:21.028Z,5.13
2017-04-18T05:39:22.450Z,5.10
2017-04-18T05:40:23.880Z,5.20
2017-04-18T05:41:25.374Z,5.38
2017-04-18T05:42:26.798Z,5.55
2017-04-18T05:43:28.219Z,5.60
2017-04-18T05:44:29.644Z,5.45
2017-04-18T05:45:31.063Z,5.52
2017-04-18T05:46:32.495Z,5.25
2017-04-18T05:47:33.911Z,5.27
2017-04-18T05:48:35.339Z,5.49
2017-04-18T05:49:36.767Z,5.32
2017-04-18T05:50:38.192Z,5.41
2017-04-18T05:51:39.619Z,5.46
2017-04-18T05:52:41.069Z,5.19
2017-04-18T05:53:42.471Z,5.38
2017-04-18T05:54:43.895Z,5.27
2017-04-18T05:55:45.318Z,5.12
2017-04-18T05:56:46.745Z,5.05
2017-04-18T05:57:48.163Z,5.20
2017-04-18T05:58:49.593Z,5.17
2017-04-18T05:59:51.012Z,5.14
2017-04-18T06:00:52.473Z,5.13
2017-04-18T06:01:53.894Z,5.01
2017-04-18T06:02:55.322Z,5.05
2017-04-18T06:03:56.740Z,5.46
2017-04-18T06:04:58.167Z,5.67
2017-04-18T06:05:59.588Z,5.60
2017-04-18T06:07:01.014Z,5.38
2017-04-18T06:08:02.442Z,5.60
2017-04-18T06:09:03.878Z,5.64
2017-04-18T06:10:05.306Z,5.66
2017-04-18T06:11:06.725Z,5.43
2017-04-18T06:12:08.151Z,5.38
2017-04-18T06:13:09.582Z,5.05
2017-04-18T06:14:11.002Z,5.05
2017-04-18T06:15:12.429Z,4.92
2017-04-18T06:16:13.854Z,4.99
2017-04-18T06:17:15.273Z,5.05
2017-04-18T06:18:16.696Z,5.07
2017-04-18T06:19:18.123Z,5.19
2017-04-18T06:20:19.541Z,4.96
2017-04-18T06:21:20.970Z,4.95
2017-04-18T06:22:22.392Z,5.05
2017-04-18T06:23:23.827Z,5.01
2017-04-18T06:24:25.251Z,5.07
2017-04-18T06:25:26.680Z,5.04
2017-04-18T06:26:28.103Z,5.25
2017-04-18T06:27:29.539Z,5.04
2017-04-18T06:28:30.953Z,5.22
2017-04-18T06:29:32.377Z,5.14
2017-04-18T06:30:33.804Z,5.37
2017-04-18T06:31:35.236Z,5.35
2017-04-18T06:32:36.680Z,5.48
2017-04-18T06:33:38.101Z,5.34
2017-04-18T06:34:39.533Z,5.43
2017-04-18T06:35:40.967Z,5.48
2017-04-18T06:36:42.395Z,5.48
2017-04-18T06:37:43.850Z,5.41
2017-04-18T06:38:45.343Z,5.50
2017-04-18T06:39:46.775Z,5.57
2017-04-18T06:40:48.194Z,5.35
2017-04-18T06:41:49.620Z,5.30
2017-04-18T06:42:51.056Z,5.17
2017-04-18T06:43:52.471Z,5.27
2017-04-18T06:44:53.902Z,5.32
2017-04-18T06:45:55.336Z,5.35
2017-04-18T06:46:56.758Z,5.41
2017-04-18T06:47:58.183Z,5.34
2017-04-18T06:48:59.623Z,5.49
2017-04-18T06:50:01.045Z,5.55
2017-04-18T06:51:02.479Z,5.35
2017-04-18T06:52:03.904Z,5.43
2017-04-18T06:53:05.336Z,5.50
2017-04-18T06:54:06.754Z,5.55
2017-04-18T06:55:08.182Z,5.59
2017-04-18T06:56:09.605Z,5.46
2017-04-18T06:57:11.031Z,5.45
2017-04-18T06:58:12.462Z,5.64
2017-04-18T06:59:13.887Z,5.67
2017-04-18T07:00:15.317Z,5.57
2017-04-18T07:01:16.735Z,5.60
2017-04-18T07:02:18.168Z,5.66
2017-04-18T07:03:19.594Z,5.59
2017-04-18T07:04:21.022Z,5.75
2017-04-18T07:05:22.441Z,5.63
2017-04-18T07:06:23.866Z,5.64
2017-04-18T07:07:25.293Z,5.59
2017-04-18T07:08:26.715Z,5.52
2017-04-18T07:09:28.139Z,5.57
2017-04-18T07:10:29.563Z,5.63
2017-04-18T07:11:30.988Z,5.57
2017-04-18T07:12:32.409Z,5.38
2017-04-18T07:13:33.835Z,5.31
2017-04-18T07:14:35.917Z,5.46
2017-04-18T07:15:37.346Z,5.52
2017-04-18T07:16:38.774Z,5.59
2017-04-18T07:17:40.204Z,5.46
2017-04-18T07:18:41.633Z,5.45
2017-04-18T07:19:43.072Z,5.48
2017-04-18T07:20:44.495Z,5.35
2017-04-18T07:21:45.914Z,5.35
2017-04-18T07:22:47.340Z,5.32
2017-04-18T07:23:48.783Z,5.31
2017-04-18T07:24:50.207Z,5.30
2017-04-18T07:25:51.636Z,5.19
2017-04-18T07:26:53.057Z,5.35
2017-04-18T07:27:54.485Z,5.09
2017-04-18T07:28:55.869Z,5.20
2017-04-18T07:29:57.291Z,5.19
2017-04-18T07:30:58.715Z,5.14
2017-04-18T07:32:00.150Z,5.16
2017-04-18T07:33:01.573Z,5.35
2017-04-18T07:34:02.996Z,5.50
2017-04-18T07:35:04.422Z,5.28
2017-04-18T07:36:05.847Z,5.35
2017-04-18T07:37:07.272Z,5.56
2017-04-18T07:38:08.716Z,5.81
2017-04-18T07:39:10.136Z,5.57
2017-04-18T07:40:11.573Z,5.67
2017-04-18T07:41:13.002Z,5.67
2017-04-18T07:42:14.433Z,5.86
2017-04-18T07:43:15.857Z,5.82
2017-04-18T07:44:17.279Z,5.77
2017-04-18T07:45:18.702Z,5.68
2017-04-18T07:46:20.124Z,5.78
2017-04-18T07:47:21.550Z,6.03
2017-04-18T07:48:22.982Z,5.96
2017-04-18T07:49:24.414Z,6.09
2017-04-18T07:50:25.836Z,6.14
2017-04-18T07:51:27.266Z,6.13
2017-04-18T07:52:28.695Z,6.40
2017-04-18T07:53:30.124Z,6.47
2017-04-18T07:54:31.543Z,6.53
2017-04-18T07:55:32.984Z,6.68
2017-04-18T07:56:34.411Z,6.90
2017-04-18T07:57:35.848Z,7.13
2017-04-18T07:58:37.277Z,7.02
2017-04-18T07:59:38.702Z,7.13
2017-04-18T08:00:40.123Z,7.05
2017-04-18T08:01:41.543Z,7.17
2017-04-18T08:02:42.980Z,6.80
2017-04-18T08:03:44.403Z,6.87
2017-04-18T08:04:45.825Z,6.97
2017-04-18T08:05:47.248Z,6.90
2017-04-18T08:06:48.675Z,6.73
2017-04-18T08:07:50.103Z,6.81
2017-04-18T08:08:51.535Z,6.62
2017-04-18T08:09:52.956Z,6.35
2017-04-18T08:10:54.394Z,6.44
2017-04-18T08:11:55.826Z,6.80
2017-04-18T08:12:57.251Z,6.84
2017-04-18T08:13:58.709Z,7.05
2017-04-18T08:15:00.107Z,6.98
2017-04-18T08:16:01.547Z,7.29
2017-04-18T08:17:02.976Z,7.19
2017-04-18T08:18:04.407Z,7.24
2017-04-18T08:19:05.839Z,7.22
2017-04-18T08:20:07.321Z,7.34
2017-04-18T08:21:08.751Z,7.20
2017-04-18T08:22:10.176Z,7.29
2017-04-18T08:23:11.683Z,7.31
2017-04-18T08:24:13.128Z,7.34
2017-04-18T08:25:14.555Z,7.19
2017-04-18T08:26:15.981Z,7.23
2017-04-18T08:27:17.412Z,7.40
2017-04-18T08:28:18.834Z,7.42
2017-04-18T08:29:20.261Z,7.34
2017-04-18T08:30:21.694Z,7.45
2017-04-18T08:31:23.121Z,7.34
2017-04-18T08:32:24.543Z,7.40
2017-04-18T08:33:25.973Z,7.37
2017-04-18T08:34:27.427Z,7.42
2017-04-18T08:35:28.849Z,7.55
2017-04-18T08:36:30.276Z,7.38
2017-04-18T08:37:31.718Z,7.45
2017-04-18T08:38:33.142Z,7.55
2017-04-18T08:39:34.572Z,7.55
2017-04-18T08:40:36.006Z,7.44
2017-04-18T08:41:37.440Z,7.58
2017-04-18T08:42:38.867Z,7.52
2017-04-18T08:43:40.297Z,7.44
2017-04-18T08:44:41.717Z,7.77
2017-04-18T08:45:43.154Z,7.99
2017-04-18T08:46:44.583Z,8.18
2017-04-18T08:47:46.013Z,7.77
2017-04-18T08:48:47.447Z,7.84
2017-04-18T08:49:48.877Z,7.79
2017-04-18T08:50:50.299Z,7.55
2017-04-18T08:51:51.723Z,7.72
2017-04-18T08:52:53.156Z,7.69
2017-04-18T08:53:54.586Z,7.96
2017-04-18T08:54:56.017Z,7.99
2017-04-18T08:55:57.455Z,7.72
2017-04-18T08:56:58.885Z,7.87
2017-04-18T08:58:00.313Z,7.85
2017-04-18T08:59:01.747Z,7.62
2017-04-18T09:00:03.172Z,7.79
2017-04-18T09:01:04.596Z,7.82
2017-04-18T09:02:06.026Z,7.78
2017-04-18T09:03:07.455Z,7.66
2017-04-18T09:04:08.884Z,7.72
2017-04-18T09:05:10.316Z,7.85
2017-04-18T09:06:11.746Z,7.90
2017-04-18T09:07:13.180Z,7.90
2017-04-18T09:08:14.604Z,8.00
2017-04-18T09:09:16.033Z,7.99
2017-04-18T09:10:17.467Z,8.12
2017-04-18T09:11:18.897Z,8.30
2017-04-18T09:12:20.331Z,8.36
2017-04-18T09:13:21.763Z,8.53
2017-04-18T09:14:23.185Z,8.86
2017-04-18T09:15:24.617Z,9.20
2017-04-18T09:16:26.047Z,9.27
2017-04-18T09:17:27.470Z,9.38
2017-04-18T09:18:28.898Z,9.60
2017-04-18T09:19:30.330Z,9.38
2017-04-18T09:20:31.757Z,9.40
2017-04-18T09:21:33.186Z,9.06
2017-04-18T09:22:34.623Z,9.06
2017-04-18T09:23:36.054Z,8.97
2017-04-18T09:24:37.488Z,8.79
2017-04-18T09:25:38.915Z,8.51
2017-04-18T09:26:40.344Z,8.30
2017-04-18T09:27:41.763Z,8.33
2017-04-18T09:28:43.191Z,8.08
2017-04-18T09:29:44.623Z,7.85
2017-04-18T09:30:46.055Z,7.74
2017-04-18T09:31:47.486Z,7.62
2017-04-18T09:32:48.912Z,7.52
2017-04-18T09:33:50.331Z,7.55
2017-04-18T09:34:51.805Z,7.63
2017-04-18T09:35:53.237Z,7.58
2017-04-18T09:36:54.658Z,7.47
2017-04-18T09:37:56.095Z,7.52
2017-04-18T09:38:57.523Z,7.67
2017-04-18T09:39:58.948Z,7.47
2017-04-18T09:41:00.382Z,7.56
2017-04-18T09:42:01.821Z,7.41
2017-04-18T09:43:03.255Z,7.56
2017-04-18T09:44:04.686Z,7.71
2017-04-18T09:45:06.719Z,7.71
2017-04-18T09:46:08.146Z,7.58
2017-04-18T09:47:09.575Z,7.58
2017-04-18T09:48:11.008Z,7.81
2017-04-18T09:49:12.436Z,7.85
2017-04-18T09:50:13.868Z,7.82
2017-04-18T09:51:15.297Z,7.72
2017-04-18T09:52:16.720Z,7.96
2017-04-18T09:53:18.099Z,7.90
2017-04-18T09:54:19.527Z,7.96
2017-04-18T09:55:20.955Z,7.79
2017-04-18T09:56:22.382Z,8.03
2017-04-18T09:57:23.818Z,7.99
2017-04-18T09:58:25.248Z,8.25
2017-04-18T09:59:26.694Z,8.08
2017-04-18T10:00:28.123Z,8.03
2017-04-18T10:01:29.550Z,7.97
2017-04-18T10:02:30.977Z,7.82
2017-04-18T10:03:32.414Z,7.85
2017-04-18T10:04:33.803Z,7.69
2017-04-18T10:05:35.226Z,7.94
2017-04-18T10:06:36.654Z,7.84
2017-04-18T10:07:38.087Z,7.74
2017-04-18T10:08:39.515Z,7.45
2017-04-18T10:09:40.962Z,7.23
2017-04-18T10:10:42.394Z,7.20
2017-04-18T10:11:43.822Z,6.68
2017-04-18T10:12:46.297Z,6.44
2017-04-18T10:13:47.720Z,6.19
2017-04-18T10:14:49.152Z,6.04
2017-04-18T10:15:50.571Z,5.64
2017-04-18T10:16:52.005Z,5.63
2017-04-18T10:17:53.432Z,5.17
2017-04-18T10:18:54.863Z,5.20
2017-04-18T10:19:56.293Z,5.14
2017-04-18T10:20:57.720Z,5.07
2017-04-18T10:21:59.167Z,5.32
2017-04-18T10:23:00.599Z,5.35
2017-04-18T10:24:02.684Z,5.48
2017-04-18T10:25:04.126Z,5.41
2017-04-18T10:26:05.560Z,5.67
2017-04-18T10:27:06.982Z,5.77
2017-04-18T10:28:08.407Z,5.63
2017-04-18T10:29:09.835Z,5.81
2017-04-18T10:30:11.265Z,6.01
2017-04-18T10:31:12.689Z,6.06
2017-04-18T10:32:14.119Z,5.93
2017-04-18T10:33:15.542Z,6.03
2017-04-18T10:34:16.975Z,6.09
2017-04-18T10:35:18.400Z,6.38
2017-04-18T10:36:19.826Z,6.41
2017-04-18T10:37:21.253Z,6.43
2017-04-18T10:38:22.679Z,6.53
2017-04-18T10:39:24.069Z,6.54
2017-04-18T10:40:25.494Z,6.77
2017-04-18T10:41:26.930Z,6.76
2017-04-18T10:42:28.351Z,6.80
2017-04-18T10:43:29.784Z,6.91
2017-04-18T10:44:31.214Z,7.07
2017-04-18T10:45:32.639Z,7.32
2017-04-18T10:46:34.081Z,7.53
2017-04-18T10:47:35.508Z,7.58
2017-04-18T10:48:36.934Z,8.00
2017-04-18T10:49:38.360Z,7.78
2017-04-18T10:50:39.793Z,7.92
2017-04-18T10:51:41.225Z,7.58
2017-04-18T10:52:42.649Z,7.72
2017-04-18T10:53:44.086Z,7.56
2017-04-18T10:54:45.511Z,7.45
2017-04-18T10:55:46.945Z,7.58
2017-04-18T10:56:48.375Z,7.59
2017-04-18T10:57:50.374Z,7.55
2017-04-18T10:58:51.797Z,7.41
2017-04-18T10:59:53.181Z,7.29
2017-04-18T11:00:54.620Z,7.35
2017-04-18T11:01:56.044Z,7.27
2017-04-18T11:02:57.476Z,7.23
2017-04-18T11:03:58.894Z,7.29
2017-04-18T11:05:00.335Z,7.15
2017-04-18T11:06:01.776Z,7.07
2017-04-18T11:07:03.202Z,7.08
2017-04-18T11:08:04.631Z,6.90
2017-04-18T11:09:06.070Z,6.87
2017-04-18T11:10:07.492Z,6.71
2017-04-18T11:11:09.634Z,6.76
2017-04-18T11:12:11.076Z,6.83
2017-04-18T11:13:12.507Z,6.89
2017-04-18T11:14:13.939Z,6.89
2017-04-18T11:15:15.360Z,7.07
2017-04-18T11:16:16.790Z,7.24
2017-04-18T11:17:18.215Z,7.19
2017-04-18T11:18:19.643Z,7.47
2017-04-18T11:19:21.082Z,7.53
2017-04-18T11:20:22.503Z,7.55
2017-04-18T11:21:23.943Z,7.72
2017-04-18T11:22:25.375Z,7.56
2017-04-18T11:23:27.463Z,7.67
2017-04-18T11:24:28.893Z,7.87
2017-04-18T11:25:30.327Z,7.87
2017-04-18T11:26:31.764Z,8.32
2017-04-18T11:27:34.035Z,8.37
2017-04-18T11:28:35.456Z,8.47
2017-04-18T11:29:36.885Z,8.48
2017-04-18T11:30:38.313Z,8.35
2017-04-18T11:31:39.742Z,8.68
2017-04-18T11:32:41.173Z,8.71
2017-04-18T11:33:42.603Z,8.75
2017-04-18T11:34:44.033Z,8.57
2017-04-18T11:35:45.456Z,8.58
2017-04-18T11:36:46.885Z,8.25
2017-04-18T11:37:48.314Z,8.36
2017-04-18T11:38:49.742Z,8.22
2017-04-18T11:39:51.176Z,8.45
2017-04-18T11:40:52.619Z,8.51
2017-04-18T11:41:54.057Z,8.90
2017-04-18T11:42:55.484Z,9.53
2017-04-18T11:43:56.920Z,9.93
2017-04-18T11:44:58.345Z,9.97
2017-04-18T11:45:59.784Z,9.89
2017-04-18T11:47:01.209Z,9.60
2017-04-18T11:48:02.637Z,9.30
2017-04-18T11:49:04.074Z,9.12
2017-04-18T11:50:05.503Z,9.25
2017-04-18T11:51:06.930Z,9.15
2017-04-18T11:52:08.361Z,9.23
2017-04-18T11:53:09.793Z,9.13
2017-04-18T11:54:11.224Z,9.12
2017-04-18T11:55:12.660Z,8.97
2017-04-18T11:56:14.093Z,8.83
2017-04-18T11:57:15.536Z,8.55
2017-04-18T11:58:16.992Z,8.50
2017-04-18T11:59:18.421Z,8.17
2017-04-18T12:00:19.840Z,7.94
2017-04-18T12:01:21.269Z,7.82
2017-04-18T12:02:22.704Z,7.92
2017-04-18T12:03:24.128Z,7.44
2017-04-18T12:04:25.553Z,7.05
2017-04-18T12:05:26.979Z,6.94
2017-04-18T12:06:30.324Z,6.89
2017-04-18T12:07:31.846Z,7.12
2017-04-18T12:08:33.294Z,7.27
2017-04-18T12:09:34.737Z,7.41
2017-04-18T12:10:36.164Z,8.20
2017-04-18T12:11:37.600Z,8.54
2017-04-18T12:12:39.559Z,8.81
2017-04-18T12:13:40.997Z,8.81
2017-04-18T12:14:42.422Z,8.78
2017-04-18T12:15:43.851Z,8.83
2017-04-18T12:16:45.282Z,8.71
2017-04-18T12:17:46.712Z,8.73
2017-04-18T12:18:48.134Z,8.37
2017-04-18T12:19:49.581Z,8.54
2017-04-18T12:20:51.013Z,8.50
2017-04-18T12:21:52.444Z,8.57
2017-04-18T12:22:53.876Z,8.65
2017-04-18T12:23:55.306Z,8.58
2017-04-18T12:24:56.735Z,8.32
2017-04-18T12:25:58.178Z,8.14
2017-04-18T12:26:59.602Z,8.20
2017-04-18T12:28:01.036Z,8.37
2017-04-18T12:29:02.463Z,8.69
2017-04-18T12:30:03.897Z,8.60
2017-04-18T12:31:05.328Z,8.53
2017-04-18T12:32:06.750Z,8.42
2017-04-18T12:33:08.184Z,8.50
2017-04-18T12:34:09.614Z,8.22
2017-04-18T12:35:11.059Z,8.45
2017-04-18T12:36:12.492Z,8.47
2017-04-18T12:37:13.918Z,8.45
2017-04-18T12:38:15.346Z,8.26
2017-04-18T12:39:16.775Z,8.04
2017-04-18T12:40:18.215Z,8.55
2017-04-18T12:41:19.639Z,8.83
2017-04-18T12:42:21.070Z,9.40
2017-04-18T12:43:22.506Z,9.42
2017-04-18T12:44:23.945Z,9.61
2017-04-18T12:45:25.376Z,9.31
2017-04-18T12:46:26.805Z,9.73
2017-04-18T12:47:28.237Z,10.26
2017-04-18T12:48:29.666Z,10.53
2017-04-18T12:49:31.094Z,10.70
2017-04-18T12:50:32.525Z,10.81
2017-04-18T12:51:33.957Z,10.56
2017-04-18T12:52:35.406Z,9.81
2017-04-18T12:53:36.841Z,9.61
2017-04-18T12:54:38.269Z,9.82
2017-04-18T12:55:39.696Z,9.89
2017-04-18T12:56:41.133Z,10.14
2017-04-18T12:57:42.565Z,10.42
2017-04-18T12:58:43.999Z,10.62
2017-04-18T12:59:45.462Z,10.80
2017-04-18T13:00:46.890Z,10.86
2017-04-18T13:01:48.314Z,10.89
2017-04-18T13:02:49.748Z,10.81
2017-04-18T13:03:51.177Z,11.07
2017-04-18T13:04:52.611Z,11.13
2017-04-18T13:05:54.038Z,11.10
2017-04-18T13:06:55.482Z,10.65
2017-04-18T13:07:56.904Z,10.94
2017-04-18T13:08:58.338Z,11.17
2017-04-18T13:09:59.876Z,11.64
2017-04-18T13:11:01.309Z,11.93
2017-04-18T13:12:02.746Z,11.64
2017-04-18T13:13:04.187Z,11.10
2017-04-18T13:14:05.628Z,11.80
2017-04-18T13:15:07.069Z,11.89
2017-04-18T13:16:08.495Z,11.57
2017-04-18T13:17:09.929Z,11.57
2017-04-18T13:18:11.447Z,11.61
2017-04-18T13:19:12.885Z,11.44
2017-04-18T13:20:14.319Z,11.27
2017-04-18T13:21:15.745Z,10.65
2017-04-18T13:22:17.186Z,10.58
2017-04-18T13:23:18.615Z,9.93
2017-04-18T13:24:22.218Z,10.04
2017-04-18T13:25:23.656Z,10.21
2017-04-18T13:26:25.094Z,10.36
2017-04-18T13:27:26.532Z,10.39
2017-04-18T13:28:27.965Z,10.15
2017-04-18T13:29:29.396Z,9.73
2017-04-18T13:30:30.823Z,9.48
2017-04-18T13:31:32.255Z,9.40
2017-04-18T13:32:33.687Z,9.23
2017-04-18T13:33:35.117Z,8.96
2017-04-18T13:34:36.555Z,9.20
2017-04-18T13:35:37.983Z,9.04
2017-04-18T13:36:39.413Z,11.32